TimeMST,TemperatureF,Dew PointF,Humidity,Sea Level PressureIn,VisibilityMPH,Wind Direction,Wind SpeedMPH,Gust SpeedMPH,PrecipitationIn,Events,Conditions,WindDirDegrees,DateUTC
12:53 AM,78.1,46.9,33,29.85,10.0,Calm,Calm,-,N/A,,Clear,0,2012-09-30 07:53:00
1:53 AM,77.0,46.0,33,29.85,10.0,NNE,5.8,-,N/A,,Clear,20,2012-09-30 08:53:00
2:53 AM,75.0,46.0,36,29.85,10.0,NNW,4.6,-,N/A,,Clear,330,2012-09-30 09:53:00
3:53 AM,75.0,46.0,36,29.85,10.0,Calm,Calm,-,N/A,,Clear,0,2012-09-30 10:53:00
4:53 AM,73.0,46.0,38,29.85,10.0,East,6.9,-,N/A,,Clear,90,2012-09-30 11:53:00
5:53 AM,72.0,46.0,40,29.87,10.0,Calm,Calm,-,N/A,,Clear,0,2012-09-30 12:53:00
6:53 AM,73.0,45.0,37,29.89,10.0,NNE,3.5,-,N/A,,Clear,30,2012-09-30 13:53:00
7:53 AM,79.0,46.0,31,29.90,10.0,Calm,Calm,-,N/A,,Clear,0,2012-09-30 14:53:00
8:53 AM,82.0,46.9,29,29.92,10.0,Calm,Calm,-,N/A,,Clear,0,2012-09-30 15:53:00
9:53 AM,86.0,46.9,26,29.91,10.0,Calm,Calm,-,N/A,,Clear,0,2012-09-30 16:53:00
10:53 AM,89.1,46.0,22,29.90,10.0,Variable,3.5,-,N/A,,Clear,0,2012-09-30 17:53:00
11:53 AM,91.9,44.1,19,29.88,10.0,Calm,Calm,-,N/A,,Clear,0,2012-09-30 18:53:00
12:53 PM,95.0,44.1,17,29.85,10.0,South,5.8,-,N/A,,Clear,190,2012-09-30 19:53:00
1:53 PM,98.1,42.1,15,29.81,10.0,SW,10.4,-,N/A,,Clear,230,2012-09-30 20:53:00
2:53 PM,99.0,39.9,13,29.79,10.0,WSW,11.5,-,N/A,,Clear,240,2012-09-30 21:53:00
3:53 PM,99.0,36.0,11,29.77,10.0,SW,10.4,-,N/A,,Clear,220,2012-09-30 22:53:00
4:53 PM,99.0,35.1,11,29.75,10.0,SW,8.1,-,N/A,,Clear,220,2012-09-30 23:53:00
5:53 PM,96.1,36.0,12,29.76,10.0,WSW,9.2,-,N/A,,Clear,240,2012-10-01 00:53:00
6:53 PM,93.0,36.0,13,29.78,10.0,SSW,4.6,-,N/A,,Clear,210,2012-10-01 01:53:00
7:53 PM,89.1,37.0,16,29.78,10.0,NNW,3.5,-,N/A,,Clear,340,2012-10-01 02:53:00
9:53 PM,84.9,37.0,18,29.81,10.0,NE,8.1,-,N/A,,Clear,40,2012-10-01 04:53:00
10:53 PM,84.0,35.1,17,29.81,10.0,NNE,10.4,-,N/A,,Clear,30,2012-10-01 05:53:00
11:53 PM,82.0,28.9,14,29.81,10.0,NNE,10.4,-,N/A,,Clear,30,2012-10-01 06:53:00